sensor_id;sensor_type;location;lat;lon;timestamp;P1;durP1;ratioP1;P2;durP2;ratioP2
5006;SDS011;2522;50.972;11.046;2022-07-29T03:30:59;5.23;;;1.80;;
5006;SDS011;2522;50.972;11.046;2022-07-29T03:33:25;4.60;;;1.43;;
5006;SDS011;2522;50.972;11.046;2022-07-29T03:35:53;11.03;;;1.93;;
5006;SDS011;2522;50.972;11.046;2022-07-29T03:38:20;9.27;;;1.67;;
5006;SDS011;2522;50.972;11.046;2022-07-29T03:40:55;4.10;;;1.80;;
5006;SDS011;2522;50.972;11.046;2022-07-29T03:43:27;4.00;;;1.60;;
5006;SDS011;2522;50.972;11.046;2022-07-29T03:45:59;3.00;;;1.37;;
5006;SDS011;2522;50.972;11.046;2022-07-29T03:48:28;4.93;;;1.60;;
5006;SDS011;2522;50.972;11.046;2022-07-29T03:50:58;5.80;;;1.80;;
5006;SDS011;2522;50.972;11.046;2022-07-29T03:53:26;3.13;;;1.67;;
5006;SDS011;2522;50.972;11.046;2022-07-29T03:55:53;3.17;;;1.63;;
5006;SDS011;2522;50.972;11.046;2022-07-29T03:58:24;3.93;;;1.60;;
5006;SDS011;2522;50.972;11.046;2022-07-29T04:00:53;5.70;;;1.83;;
5006;SDS011;2522;50.972;11.046;2022-07-29T04:03:22;4.83;;;1.90;;
5006;SDS011;2522;50.972;11.046;2022-07-29T04:08:34;7.37;;;1.17;;
5006;SDS011;2522;50.972;11.046;2022-07-29T04:11:01;5.50;;;1.53;;
5006;SDS011;2522;50.972;11.046;2022-07-29T04:13:28;4.90;;;1.63;;
5006;SDS011;2522;50.972;11.046;2022-07-29T04:15:55;6.20;;;1.67;;
5006;SDS011;2522;50.972;11.046;2022-07-29T04:18:23;5.03;;;2.20;;
5006;SDS011;2522;50.972;11.046;2022-07-29T04:20:50;6.40;;;1.83;;
5006;SDS011;2522;50.972;11.046;2022-07-29T04:23:20;5.70;;;2.47;;
5006;SDS011;2522;50.972;11.046;2022-07-29T04:25:47;13.10;;;2.03;;
5006;SDS011;2522;50.972;11.046;2022-07-29T04:28:14;3.83;;;1.60;;
5006;SDS011;2522;50.972;11.046;2022-07-29T04:30:40;4.33;;;1.70;;
5006;SDS011;2522;50.972;11.046;2022-07-29T04:33:07;3.73;;;1.83;;
5006;SDS011;2522;50.972;11.046;2022-07-29T04:35:36;5.30;;;2.07;;
5006;SDS011;2522;50.972;11.046;2022-07-29T04:38:04;3.60;;;2.03;;
5006;SDS011;2522;50.972;11.046;2022-07-29T04:40:32;6.27;;;2.13;;
5006;SDS011;2522;50.972;11.046;2022-07-29T04:43:00;4.03;;;1.87;;
5006;SDS011;2522;50.972;11.046;2022-07-29T04:45:27;3.87;;;1.80;;
5006;SDS011;2522;50.972;11.046;2022-07-29T04:47:54;3.20;;;1.77;;
5006;SDS011;2522;50.972;11.046;2022-07-29T04:50:21;7.50;;;1.80;;
5006;SDS011;2522;50.972;11.046;2022-07-29T04:52:49;2.60;;;1.47;;
5006;SDS011;2522;50.972;11.046;2022-07-29T04:55:16;5.90;;;1.80;;
5006;SDS011;2522;50.972;11.046;2022-07-29T04:57:43;3.17;;;1.83;;
5006;SDS011;2522;50.972;11.046;2022-07-29T05:00:10;7.30;;;2.03;;
5006;SDS011;2522;50.972;11.046;2022-07-29T05:02:38;6.90;;;2.10;;
5006;SDS011;2522;50.972;11.046;2022-07-29T05:05:05;6.70;;;1.70;;
5006;SDS011;2522;50.972;11.046;2022-07-29T05:07:32;2.40;;;1.47;;
5006;SDS011;2522;50.972;11.046;2022-07-29T05:10:00;2.40;;;1.50;;
5006;SDS011;2522;50.972;11.046;2022-07-29T05:12:27;6.70;;;1.43;;
5006;SDS011;2522;50.972;11.046;2022-07-29T05:14:57;8.53;;;1.60;;
5006;SDS011;2522;50.972;11.046;2022-07-29T05:17:24;4.20;;;1.70;;
5006;SDS011;2522;50.972;11.046;2022-07-29T05:19:51;7.30;;;1.90;;
5006;SDS011;2522;50.972;11.046;2022-07-29T05:22:18;7.53;;;2.43;;
5006;SDS011;2522;50.972;11.046;2022-07-29T05:24:45;3.80;;;1.80;;
5006;SDS011;2522;50.972;11.046;2022-07-29T05:27:14;5.10;;;1.40;;
5006;SDS011;2522;50.972;11.046;2022-07-29T05:29:41;8.53;;;1.87;;
5006;SDS011;2522;50.972;11.046;2022-07-29T05:32:07;6.30;;;1.63;;
5006;SDS011;2522;50.972;11.046;2022-07-29T05:34:34;3.83;;;1.37;;
5006;SDS011;2522;50.972;11.046;2022-07-29T05:37:01;5.90;;;2.13;;
5006;SDS011;2522;50.972;11.046;2022-07-29T05:39:28;6.70;;;1.77;;
5006;SDS011;2522;50.972;11.046;2022-07-29T05:41:58;3.40;;;2.07;;
5006;SDS011;2522;50.972;11.046;2022-07-29T05:44:26;4.57;;;1.70;;
5006;SDS011;2522;50.972;11.046;2022-07-29T05:46:53;3.70;;;1.67;;
5006;SDS011;2522;50.972;11.046;2022-07-29T05:49:20;9.77;;;2.23;;
5006;SDS011;2522;50.972;11.046;2022-07-29T05:51:47;12.87;;;2.63;;
5006;SDS011;2522;50.972;11.046;2022-07-29T05:54:14;6.10;;;1.67;;
5006;SDS011;2522;50.972;11.046;2022-07-29T05:56:41;4.50;;;2.20;;
5006;SDS011;2522;50.972;11.046;2022-07-29T05:59:07;10.57;;;2.43;;
5006;SDS011;2522;50.972;11.046;2022-07-29T06:01:36;4.60;;;1.87;;
5006;SDS011;2522;50.972;11.046;2022-07-29T06:04:04;6.43;;;2.20;;
5006;SDS011;2522;50.972;11.046;2022-07-29T06:06:31;4.03;;;1.83;;
5006;SDS011;2522;50.972;11.046;2022-07-29T06:08:59;6.17;;;2.00;;
5006;SDS011;2522;50.972;11.046;2022-07-29T06:11:26;5.63;;;2.07;;
5006;SDS011;2522;50.972;11.046;2022-07-29T06:13:53;9.47;;;2.10;;
5006;SDS011;2522;50.972;11.046;2022-07-29T06:16:20;6.77;;;2.13;;
5006;SDS011;2522;50.972;11.046;2022-07-29T06:18:50;5.93;;;2.03;;
5006;SDS011;2522;50.972;11.046;2022-07-29T06:21:17;5.97;;;1.77;;
5006;SDS011;2522;50.972;11.046;2022-07-29T06:23:44;8.20;;;1.50;;
5006;SDS011;2522;50.972;11.046;2022-07-29T06:26:11;4.47;;;1.77;;
5006;SDS011;2522;50.972;11.046;2022-07-29T06:28:38;12.70;;;1.93;;
5006;SDS011;2522;50.972;11.046;2022-07-29T06:31:05;2.40;;;1.50;;
5006;SDS011;2522;50.972;11.046;2022-07-29T06:33:31;3.50;;;1.63;;
5006;SDS011;2522;50.972;11.046;2022-07-29T06:36:00;6.20;;;1.67;;
5006;SDS011;2522;50.972;11.046;2022-07-29T06:38:26;5.50;;;1.90;;
5006;SDS011;2522;50.972;11.046;2022-07-29T06:40:53;5.53;;;2.60;;
5006;SDS011;2522;50.972;11.046;2022-07-29T06:43:26;8.97;;;2.00;;
5006;SDS011;2522;50.972;11.046;2022-07-29T06:45:54;4.57;;;2.40;;
5006;SDS011;2522;50.972;11.046;2022-07-29T06:48:21;3.70;;;1.60;;
5006;SDS011;2522;50.972;11.046;2022-07-29T06:50:47;2.77;;;1.63;;
5006;SDS011;2522;50.972;11.046;2022-07-29T06:53:16;4.70;;;1.80;;
5006;SDS011;2522;50.972;11.046;2022-07-29T06:55:42;3.73;;;1.93;;
5006;SDS011;2522;50.972;11.046;2022-07-29T06:58:09;5.40;;;2.20;;
5006;SDS011;2522;50.972;11.046;2022-07-29T07:00:36;9.93;;;1.70;;
5006;SDS011;2522;50.972;11.046;2022-07-29T07:03:03;5.20;;;1.80;;
5006;SDS011;2522;50.972;11.046;2022-07-29T07:05:30;5.23;;;2.17;;
5006;SDS011;2522;50.972;11.046;2022-07-29T07:07:57;6.77;;;2.37;;
5006;SDS011;2522;50.972;11.046;2022-07-29T07:10:25;4.50;;;2.00;;
5006;SDS011;2522;50.972;11.046;2022-07-29T07:12:52;14.23;;;2.07;;
5006;SDS011;2522;50.972;11.046;2022-07-29T07:15:18;7.23;;;2.30;;
5006;SDS011;2522;50.972;11.046;2022-07-29T07:17:46;9.90;;;1.70;;
5006;SDS011;2522;50.972;11.046;2022-07-29T07:20:14;6.07;;;1.80;;
5006;SDS011;2522;50.972;11.046;2022-07-29T07:22:41;9.60;;;2.50;;
5006;SDS011;2522;50.972;11.046;2022-07-29T07:25:08;5.00;;;2.10;;
5006;SDS011;2522;50.972;11.046;2022-07-29T07:27:37;21.30;;;2.50;;
5006;SDS011;2522;50.972;11.046;2022-07-29T07:30:04;5.03;;;1.90;;
5006;SDS011;2522;50.972;11.046;2022-07-29T07:32:33;5.30;;;2.03;;
5006;SDS011;2522;50.972;11.046;2022-07-29T07:35:00;8.43;;;2.10;;
5006;SDS011;2522;50.972;11.046;2022-07-29T07:37:27;4.93;;;1.90;;
5006;SDS011;2522;50.972;11.046;2022-07-29T07:39:54;8.77;;;2.10;;
5006;SDS011;2522;50.972;11.046;2022-07-29T07:42:21;7.50;;;2.83;;
5006;SDS011;2522;50.972;11.046;2022-07-29T07:44:49;5.20;;;1.90;;
5006;SDS011;2522;50.972;11.046;2022-07-29T07:47:16;2.20;;;1.80;;
5006;SDS011;2522;50.972;11.046;2022-07-29T07:49:44;9.83;;;2.23;;
5006;SDS011;2522;50.972;11.046;2022-07-29T07:52:12;8.97;;;2.60;;
5006;SDS011;2522;50.972;11.046;2022-07-29T07:54:39;5.90;;;2.40;;
5006;SDS011;2522;50.972;11.046;2022-07-29T07:57:06;8.13;;;2.20;;
5006;SDS011;2522;50.972;11.046;2022-07-29T07:59:32;5.57;;;1.60;;
5006;SDS011;2522;50.972;11.046;2022-07-29T08:02:00;17.63;;;2.40;;
5006;SDS011;2522;50.972;11.046;2022-07-29T08:04:27;7.70;;;2.57;;
5006;SDS011;2522;50.972;11.046;2022-07-29T08:06:54;13.00;;;1.97;;
5006;SDS011;2522;50.972;11.046;2022-07-29T08:09:24;13.93;;;2.50;;
5006;SDS011;2522;50.972;11.046;2022-07-29T08:11:53;5.63;;;2.10;;
5006;SDS011;2522;50.972;11.046;2022-07-29T08:14:21;7.93;;;2.30;;
5006;SDS011;2522;50.972;11.046;2022-07-29T08:16:48;8.50;;;2.17;;
5006;SDS011;2522;50.972;11.046;2022-07-29T08:19:16;4.77;;;1.80;;
5006;SDS011;2522;50.972;11.046;2022-07-29T08:21:42;11.83;;;2.70;;
5006;SDS011;2522;50.972;11.046;2022-07-29T08:24:09;4.90;;;2.43;;
5006;SDS011;2522;50.972;11.046;2022-07-29T08:26:53;3.30;;;2.10;;
5006;SDS011;2522;50.972;11.046;2022-07-29T08:29:20;14.17;;;2.50;;
5006;SDS011;2522;50.972;11.046;2022-07-29T08:31:47;14.87;;;2.67;;
5006;SDS011;2522;50.972;11.046;2022-07-29T08:34:15;12.50;;;2.73;;
5006;SDS011;2522;50.972;11.046;2022-07-29T08:36:42;18.80;;;2.97;;
5006;SDS011;2522;50.972;11.046;2022-07-29T08:39:09;15.43;;;3.23;;
5006;SDS011;2522;50.972;11.046;2022-07-29T08:41:36;4.40;;;1.93;;
5006;SDS011;2522;50.972;11.046;2022-07-29T08:44:03;10.30;;;2.80;;
5006;SDS011;2522;50.972;11.046;2022-07-29T08:46:30;7.43;;;3.10;;
5006;SDS011;2522;50.972;11.046;2022-07-29T08:48:57;12.60;;;3.07;;
5006;SDS011;2522;50.972;11.046;2022-07-29T08:51:25;9.30;;;2.57;;
5006;SDS011;2522;50.972;11.046;2022-07-29T08:53:52;20.03;;;2.80;;
5006;SDS011;2522;50.972;11.046;2022-07-29T08:56:20;12.97;;;3.13;;
5006;SDS011;2522;50.972;11.046;2022-07-29T08:58:47;7.63;;;2.70;;
5006;SDS011;2522;50.972;11.046;2022-07-29T09:01:16;6.00;;;2.10;;
5006;SDS011;2522;50.972;11.046;2022-07-29T09:03:46;12.43;;;2.60;;
5006;SDS011;2522;50.972;11.046;2022-07-29T09:06:15;10.00;;;3.03;;
5006;SDS011;2522;50.972;11.046;2022-07-29T09:08:45;12.63;;;2.53;;
5006;SDS011;2522;50.972;11.046;2022-07-29T09:11:12;10.60;;;2.30;;
5006;SDS011;2522;50.972;11.046;2022-07-29T09:13:39;6.87;;;1.97;;
5006;SDS011;2522;50.972;11.046;2022-07-29T09:16:07;3.50;;;2.40;;
5006;SDS011;2522;50.972;11.046;2022-07-29T09:18:35;9.60;;;2.30;;
5006;SDS011;2522;50.972;11.046;2022-07-29T09:21:03;5.70;;;2.30;;
5006;SDS011;2522;50.972;11.046;2022-07-29T09:24:03;6.67;;;2.50;;
5006;SDS011;2522;50.972;11.046;2022-07-29T09:26:33;5.67;;;2.77;;
5006;SDS011;2522;50.972;11.046;2022-07-29T09:29:01;19.87;;;3.13;;
5006;SDS011;2522;50.972;11.046;2022-07-29T09:31:37;5.13;;;2.17;;
5006;SDS011;2522;50.972;11.046;2022-07-29T09:34:06;7.47;;;2.37;;
5006;SDS011;2522;50.972;11.046;2022-07-29T09:36:40;7.70;;;2.97;;
5006;SDS011;2522;50.972;11.046;2022-07-29T09:39:09;16.00;;;3.43;;
5006;SDS011;2522;50.972;11.046;2022-07-29T09:41:46;7.20;;;2.90;;
5006;SDS011;2522;50.972;11.046;2022-07-29T09:44:14;5.90;;;2.77;;
5006;SDS011;2522;50.972;11.046;2022-07-29T09:46:52;8.47;;;2.73;;
5006;SDS011;2522;50.972;11.046;2022-07-29T09:49:22;8.80;;;2.50;;
5006;SDS011;2522;50.972;11.046;2022-07-29T09:51:58;11.73;;;2.80;;
5006;SDS011;2522;50.972;11.046;2022-07-29T09:54:34;5.50;;;2.67;;
5006;SDS011;2522;50.972;11.046;2022-07-29T09:57:05;11.17;;;3.40;;
5006;SDS011;2522;50.972;11.046;2022-07-29T09:59:34;8.83;;;2.40;;
5006;SDS011;2522;50.972;11.046;2022-07-29T10:02:01;11.03;;;3.00;;
5006;SDS011;2522;50.972;11.046;2022-07-29T10:04:38;8.43;;;2.67;;
5006;SDS011;2522;50.972;11.046;2022-07-29T10:07:06;11.87;;;2.93;;
5006;SDS011;2522;50.972;11.046;2022-07-29T10:09:34;7.50;;;2.43;;
5006;SDS011;2522;50.972;11.046;2022-07-29T10:12:02;4.77;;;2.37;;
5006;SDS011;2522;50.972;11.046;2022-07-29T10:14:36;7.90;;;2.40;;
5006;SDS011;2522;50.972;11.046;2022-07-29T10:17:04;12.20;;;2.40;;
5006;SDS011;2522;50.972;11.046;2022-07-29T10:19:32;9.10;;;2.93;;
5006;SDS011;2522;50.972;11.046;2022-07-29T10:22:01;7.27;;;2.03;;
5006;SDS011;2522;50.972;11.046;2022-07-29T10:24:30;4.73;;;2.70;;
5006;SDS011;2522;50.972;11.046;2022-07-29T10:27:00;4.83;;;2.50;;
5006;SDS011;2522;50.972;11.046;2022-07-29T10:29:30;9.93;;;2.77;;
5006;SDS011;2522;50.972;11.046;2022-07-29T10:32:06;4.30;;;2.80;;
5006;SDS011;2522;50.972;11.046;2022-07-29T10:34:57;4.57;;;2.90;;
5006;SDS011;2522;50.972;11.046;2022-07-29T10:40:39;8.47;;;2.47;;
5006;SDS011;2522;50.972;11.046;2022-07-29T10:43:36;8.33;;;2.93;;
5006;SDS011;2522;50.972;11.046;2022-07-29T10:46:07;3.87;;;2.20;;
5006;SDS011;2522;50.972;11.046;2022-07-29T10:48:35;6.27;;;2.50;;
5006;SDS011;2522;50.972;11.046;2022-07-29T10:51:53;12.60;;;2.50;;
5006;SDS011;2522;50.972;11.046;2022-07-29T10:57:24;7.13;;;2.03;;
5006;SDS011;2522;50.972;11.046;2022-07-29T11:02:55;5.17;;;2.73;;
5006;SDS011;2522;50.972;11.046;2022-07-29T11:05:23;6.87;;;2.57;;
5006;SDS011;2522;50.972;11.046;2022-07-29T11:10:46;13.50;;;2.10;;
5006;SDS011;2522;50.972;11.046;2022-07-29T11:16:14;5.63;;;2.33;;
5006;SDS011;2522;50.972;11.046;2022-07-29T11:21:48;3.90;;;2.37;;
5006;SDS011;2522;50.972;11.046;2022-07-29T11:24:17;4.90;;;2.40;;
5006;SDS011;2522;50.972;11.046;2022-07-29T11:29:38;3.23;;;2.60;;
5006;SDS011;2522;50.972;11.046;2022-07-29T11:32:12;3.80;;;2.30;;
5006;SDS011;2522;50.972;11.046;2022-07-29T11:34:41;3.10;;;2.03;;
5006;SDS011;2522;50.972;11.046;2022-07-29T11:37:15;17.70;;;3.27;;
5006;SDS011;2522;50.972;11.046;2022-07-29T11:39:43;5.07;;;2.30;;
5006;SDS011;2522;50.972;11.046;2022-07-29T11:45:04;4.50;;;2.60;;
5006;SDS011;2522;50.972;11.046;2022-07-29T11:47:33;5.07;;;2.70;;
5006;SDS011;2522;50.972;11.046;2022-07-29T11:50:02;5.37;;;2.33;;
5006;SDS011;2522;50.972;11.046;2022-07-29T11:52:32;12.20;;;3.17;;
5006;SDS011;2522;50.972;11.046;2022-07-29T11:55:02;8.47;;;2.63;;
5006;SDS011;2522;50.972;11.046;2022-07-29T11:57:30;6.80;;;2.43;;
5006;SDS011;2522;50.972;11.046;2022-07-29T11:59:59;3.80;;;2.60;;
5006;SDS011;2522;50.972;11.046;2022-07-29T12:02:28;14.53;;;2.77;;
5006;SDS011;2522;50.972;11.046;2022-07-29T12:05:07;10.60;;;2.73;;
5006;SDS011;2522;50.972;11.046;2022-07-29T12:07:35;4.30;;;3.00;;
5006;SDS011;2522;50.972;11.046;2022-07-29T12:10:03;4.63;;;2.67;;
5006;SDS011;2522;50.972;11.046;2022-07-29T12:12:30;4.23;;;2.60;;
5006;SDS011;2522;50.972;11.046;2022-07-29T12:14:57;5.83;;;2.50;;
5006;SDS011;2522;50.972;11.046;2022-07-29T12:17:36;7.80;;;2.93;;
5006;SDS011;2522;50.972;11.046;2022-07-29T12:20:06;5.23;;;3.20;;
5006;SDS011;2522;50.972;11.046;2022-07-29T12:22:34;18.67;;;2.90;;
5006;SDS011;2522;50.972;11.046;2022-07-29T12:25:04;3.70;;;2.53;;
5006;SDS011;2522;50.972;11.046;2022-07-29T12:27:32;10.60;;;2.73;;
5006;SDS011;2522;50.972;11.046;2022-07-29T12:30:00;9.67;;;2.73;;
5006;SDS011;2522;50.972;11.046;2022-07-29T12:32:32;6.90;;;2.90;;
5006;SDS011;2522;50.972;11.046;2022-07-29T12:35:01;4.80;;;3.30;;
5006;SDS011;2522;50.972;11.046;2022-07-29T12:37:32;9.90;;;3.03;;
5006;SDS011;2522;50.972;11.046;2022-07-29T12:39:59;11.53;;;2.83;;
5006;SDS011;2522;50.972;11.046;2022-07-29T12:42:26;17.87;;;3.20;;
5006;SDS011;2522;50.972;11.046;2022-07-29T12:44:53;6.03;;;3.30;;
5006;SDS011;2522;50.972;11.046;2022-07-29T12:47:20;8.43;;;2.93;;
5006;SDS011;2522;50.972;11.046;2022-07-29T12:49:48;3.03;;;2.72;;
5006;SDS011;2522;50.972;11.046;2022-07-29T12:52:29;6.78;;;2.80;;
5006;SDS011;2522;50.972;11.046;2022-07-29T12:55:01;7.65;;;2.92;;
5006;SDS011;2522;50.972;11.046;2022-07-29T12:57:32;6.73;;;2.63;;
5006;SDS011;2522;50.972;11.046;2022-07-29T13:00:11;9.97;;;2.93;;
5006;SDS011;2522;50.972;11.046;2022-07-29T13:02:40;7.30;;;2.92;;
5006;SDS011;2522;50.972;11.046;2022-07-29T13:05:08;4.00;;;2.53;;
5006;SDS011;2522;50.972;11.046;2022-07-29T13:07:37;4.13;;;2.80;;
5006;SDS011;2522;50.972;11.046;2022-07-29T13:10:13;9.88;;;3.47;;
5006;SDS011;2522;50.972;11.046;2022-07-29T13:15:27;4.75;;;2.78;;
5006;SDS011;2522;50.972;11.046;2022-07-29T13:17:54;5.85;;;2.72;;
5006;SDS011;2522;50.972;11.046;2022-07-29T13:20:23;5.55;;;2.60;;
5006;SDS011;2522;50.972;11.046;2022-07-29T13:22:52;9.00;;;2.97;;
5006;SDS011;2522;50.972;11.046;2022-07-29T13:25:24;5.72;;;2.80;;
5006;SDS011;2522;50.972;11.046;2022-07-29T13:27:53;7.95;;;3.42;;
5006;SDS011;2522;50.972;11.046;2022-07-29T13:30:21;7.22;;;3.00;;
5006;SDS011;2522;50.972;11.046;2022-07-29T13:32:48;11.40;;;2.88;;
5006;SDS011;2522;50.972;11.046;2022-07-29T13:35:17;6.60;;;3.33;;
5006;SDS011;2522;50.972;11.046;2022-07-29T13:37:44;11.48;;;3.42;;
5006;SDS011;2522;50.972;11.046;2022-07-29T13:40:12;5.35;;;2.95;;
5006;SDS011;2522;50.972;11.046;2022-07-29T13:42:41;11.48;;;3.30;;
5006;SDS011;2522;50.972;11.046;2022-07-29T13:45:08;5.18;;;3.72;;
5006;SDS011;2522;50.972;11.046;2022-07-29T13:47:36;4.90;;;2.78;;
5006;SDS011;2522;50.972;11.046;2022-07-29T13:50:04;5.38;;;2.72;;
5006;SDS011;2522;50.972;11.046;2022-07-29T13:52:33;9.15;;;3.10;;
5006;SDS011;2522;50.972;11.046;2022-07-29T13:55:00;7.00;;;3.17;;
5006;SDS011;2522;50.972;11.046;2022-07-29T13:57:27;9.05;;;3.45;;
5006;SDS011;2522;50.972;11.046;2022-07-29T13:59:56;5.25;;;3.10;;
5006;SDS011;2522;50.972;11.046;2022-07-29T14:02:23;13.82;;;2.97;;
5006;SDS011;2522;50.972;11.046;2022-07-29T14:04:50;6.55;;;3.15;;
5006;SDS011;2522;50.972;11.046;2022-07-29T14:07:17;9.02;;;3.10;;
5006;SDS011;2522;50.972;11.046;2022-07-29T14:09:43;4.22;;;2.83;;
5006;SDS011;2522;50.972;11.046;2022-07-29T14:12:10;5.18;;;3.15;;
5006;SDS011;2522;50.972;11.046;2022-07-29T14:14:37;7.63;;;3.63;;
5006;SDS011;2522;50.972;11.046;2022-07-29T14:17:05;6.00;;;3.13;;
5006;SDS011;2522;50.972;11.046;2022-07-29T14:19:32;11.27;;;3.40;;
5006;SDS011;2522;50.972;11.046;2022-07-29T14:22:02;5.13;;;3.60;;
5006;SDS011;2522;50.972;11.046;2022-07-29T14:24:29;5.78;;;3.03;;
5006;SDS011;2522;50.972;11.046;2022-07-29T14:26:56;6.60;;;3.83;;
5006;SDS011;2522;50.972;11.046;2022-07-29T14:29:23;5.13;;;3.17;;
5006;SDS011;2522;50.972;11.046;2022-07-29T14:31:53;8.70;;;3.50;;
5006;SDS011;2522;50.972;11.046;2022-07-29T14:34:21;9.52;;;3.42;;
5006;SDS011;2522;50.972;11.046;2022-07-29T14:36:47;5.97;;;3.63;;
5006;SDS011;2522;50.972;11.046;2022-07-29T14:39:14;4.82;;;3.25;;
5006;SDS011;2522;50.972;11.046;2022-07-29T14:41:41;4.00;;;3.15;;
5006;SDS011;2522;50.972;11.046;2022-07-29T14:44:08;8.02;;;4.03;;
5006;SDS011;2522;50.972;11.046;2022-07-29T14:46:35;7.38;;;3.90;;
5006;SDS011;2522;50.972;11.046;2022-07-29T14:49:02;5.45;;;3.67;;
5006;SDS011;2522;50.972;11.046;2022-07-29T14:51:30;5.68;;;3.47;;
5006;SDS011;2522;50.972;11.046;2022-07-29T14:53:57;10.13;;;3.63;;
5006;SDS011;2522;50.972;11.046;2022-07-29T14:56:24;8.02;;;3.80;;
5006;SDS011;2522;50.972;11.046;2022-07-29T14:58:51;5.00;;;3.60;;
5006;SDS011;2522;50.972;11.046;2022-07-29T15:01:18;6.68;;;3.20;;
5006;SDS011;2522;50.972;11.046;2022-07-29T15:03:45;7.47;;;3.13;;
5006;SDS011;2522;50.972;11.046;2022-07-29T15:06:12;5.95;;;3.58;;
5006;SDS011;2522;50.972;11.046;2022-07-29T15:08:40;7.85;;;3.15;;
5006;SDS011;2522;50.972;11.046;2022-07-29T15:11:07;4.68;;;3.38;;
5006;SDS011;2522;50.972;11.046;2022-07-29T15:13:34;13.43;;;4.35;;
5006;SDS011;2522;50.972;11.046;2022-07-29T15:16:00;7.13;;;3.47;;
5006;SDS011;2522;50.972;11.046;2022-07-29T15:18:27;8.10;;;3.35;;
5006;SDS011;2522;50.972;11.046;2022-07-29T15:20:55;8.65;;;3.67;;
5006;SDS011;2522;50.972;11.046;2022-07-29T15:23:21;9.65;;;3.08;;
5006;SDS011;2522;50.972;11.046;2022-07-29T15:25:49;9.25;;;3.50;;
5006;SDS011;2522;50.972;11.046;2022-07-29T15:28:16;10.45;;;4.05;;
5006;SDS011;2522;50.972;11.046;2022-07-29T15:30:43;7.18;;;3.35;;
5006;SDS011;2522;50.972;11.046;2022-07-29T15:33:10;6.63;;;3.38;;
5006;SDS011;2522;50.972;11.046;2022-07-29T15:35:37;6.90;;;3.20;;
5006;SDS011;2522;50.972;11.046;2022-07-29T15:38:04;12.50;;;3.08;;
5006;SDS011;2522;50.972;11.046;2022-07-29T15:40:30;7.53;;;3.80;;
5006;SDS011;2522;50.972;11.046;2022-07-29T15:42:59;9.10;;;3.38;;
5006;SDS011;2522;50.972;11.046;2022-07-29T15:45:34;9.02;;;3.65;;
5006;SDS011;2522;50.972;11.046;2022-07-29T15:48:03;5.63;;;3.65;;
5006;SDS011;2522;50.972;11.046;2022-07-29T15:50:31;4.97;;;3.30;;
5006;SDS011;2522;50.972;11.046;2022-07-29T15:52:58;5.97;;;3.17;;
5006;SDS011;2522;50.972;11.046;2022-07-29T15:55:25;10.88;;;4.20;;
5006;SDS011;2522;50.972;11.046;2022-07-29T15:57:52;6.32;;;3.45;;
5006;SDS011;2522;50.972;11.046;2022-07-29T16:00:21;5.63;;;3.88;;
5006;SDS011;2522;50.972;11.046;2022-07-29T16:02:48;5.90;;;3.50;;
5006;SDS011;2522;50.972;11.046;2022-07-29T16:05:16;6.03;;;3.92;;
5006;SDS011;2522;50.972;11.046;2022-07-29T16:07:43;6.45;;;3.33;;
5006;SDS011;2522;50.972;11.046;2022-07-29T16:10:09;5.60;;;3.70;;
5006;SDS011;2522;50.972;11.046;2022-07-29T16:12:36;8.43;;;3.67;;
5006;SDS011;2522;50.972;11.046;2022-07-29T16:15:03;14.30;;;3.95;;
5006;SDS011;2522;50.972;11.046;2022-07-29T16:17:32;6.80;;;4.07;;
5006;SDS011;2522;50.972;11.046;2022-07-29T16:19:59;6.45;;;3.88;;
5006;SDS011;2522;50.972;11.046;2022-07-29T16:22:26;7.60;;;4.53;;
5006;SDS011;2522;50.972;11.046;2022-07-29T16:24:53;4.82;;;4.30;;
5006;SDS011;2522;50.972;11.046;2022-07-29T16:27:20;5.35;;;4.05;;
5006;SDS011;2522;50.972;11.046;2022-07-29T16:29:50;23.92;;;4.75;;
5006;SDS011;2522;50.972;11.046;2022-07-29T16:32:20;6.27;;;4.20;;
5006;SDS011;2522;50.972;11.046;2022-07-29T16:34:49;6.90;;;3.90;;
5006;SDS011;2522;50.972;11.046;2022-07-29T16:37:16;5.85;;;4.13;;
5006;SDS011;2522;50.972;11.046;2022-07-29T16:39:42;6.47;;;4.30;;
5006;SDS011;2522;50.972;11.046;2022-07-29T16:42:09;7.88;;;4.78;;
5006;SDS011;2522;50.972;11.046;2022-07-29T16:44:36;9.60;;;3.70;;
5006;SDS011;2522;50.972;11.046;2022-07-29T16:47:03;5.27;;;3.87;;
5006;SDS011;2522;50.972;11.046;2022-07-29T16:49:30;7.72;;;3.88;;
5006;SDS011;2522;50.972;11.046;2022-07-29T16:51:58;5.30;;;4.67;;
5006;SDS011;2522;50.972;11.046;2022-07-29T16:54:25;4.80;;;3.50;;
5006;SDS011;2522;50.972;11.046;2022-07-29T16:56:53;6.60;;;4.23;;
5006;SDS011;2522;50.972;11.046;2022-07-29T16:59:24;8.33;;;3.40;;
5006;SDS011;2522;50.972;11.046;2022-07-29T17:01:50;5.67;;;3.30;;
5006;SDS011;2522;50.972;11.046;2022-07-29T17:04:20;17.93;;;3.80;;
5006;SDS011;2522;50.972;11.046;2022-07-29T17:06:46;9.60;;;3.90;;
5006;SDS011;2522;50.972;11.046;2022-07-29T17:09:15;5.73;;;3.40;;
5006;SDS011;2522;50.972;11.046;2022-07-29T17:11:42;8.80;;;4.10;;
5006;SDS011;2522;50.972;11.046;2022-07-29T17:14:09;11.20;;;4.00;;
5006;SDS011;2522;50.972;11.046;2022-07-29T17:16:36;7.90;;;3.67;;
5006;SDS011;2522;50.972;11.046;2022-07-29T17:19:03;5.80;;;3.40;;
5006;SDS011;2522;50.972;11.046;2022-07-29T17:21:29;10.50;;;3.37;;
5006;SDS011;2522;50.972;11.046;2022-07-29T17:23:58;12.87;;;3.67;;
5006;SDS011;2522;50.972;11.046;2022-07-29T17:26:26;5.33;;;3.80;;
5006;SDS011;2522;50.972;11.046;2022-07-29T17:28:53;9.43;;;3.50;;
5006;SDS011;2522;50.972;11.046;2022-07-29T17:31:20;5.17;;;3.30;;
5006;SDS011;2522;50.972;11.046;2022-07-29T17:33:47;8.73;;;3.70;;
5006;SDS011;2522;50.972;11.046;2022-07-29T17:36:14;4.67;;;3.27;;
5006;SDS011;2522;50.972;11.046;2022-07-29T17:38:51;6.83;;;3.33;;
5006;SDS011;2522;50.972;11.046;2022-07-29T17:41:19;3.73;;;2.90;;
5006;SDS011;2522;50.972;11.046;2022-07-29T17:43:48;8.70;;;3.63;;
5006;SDS011;2522;50.972;11.046;2022-07-29T17:46:16;4.80;;;3.00;;
5006;SDS011;2522;50.972;11.046;2022-07-29T17:48:43;7.53;;;3.07;;
5006;SDS011;2522;50.972;11.046;2022-07-29T17:51:10;16.90;;;3.90;;
5006;SDS011;2522;50.972;11.046;2022-07-29T17:53:38;9.67;;;3.10;;
5006;SDS011;2522;50.972;11.046;2022-07-29T17:56:05;7.27;;;2.73;;
5006;SDS011;2522;50.972;11.046;2022-07-29T17:58:32;4.20;;;2.50;;
5006;SDS011;2522;50.972;11.046;2022-07-29T18:01:00;4.00;;;3.00;;
5006;SDS011;2522;50.972;11.046;2022-07-29T18:03:27;4.50;;;3.20;;
5006;SDS011;2522;50.972;11.046;2022-07-29T18:05:54;6.47;;;2.80;;
5006;SDS011;2522;50.972;11.046;2022-07-29T18:08:21;4.37;;;2.70;;
5006;SDS011;2522;50.972;11.046;2022-07-29T18:10:48;7.13;;;2.70;;
5006;SDS011;2522;50.972;11.046;2022-07-29T18:13:16;4.60;;;2.90;;
5006;SDS011;2522;50.972;11.046;2022-07-29T18:15:43;8.13;;;3.40;;
5006;SDS011;2522;50.972;11.046;2022-07-29T18:18:12;6.93;;;2.90;;
5006;SDS011;2522;50.972;11.046;2022-07-29T18:20:39;5.90;;;2.93;;
5006;SDS011;2522;50.972;11.046;2022-07-29T18:23:07;3.93;;;2.53;;
5006;SDS011;2522;50.972;11.046;2022-07-29T18:25:34;4.73;;;2.77;;
5006;SDS011;2522;50.972;11.046;2022-07-29T18:28:01;4.30;;;2.40;;
5006;SDS011;2522;50.972;11.046;2022-07-29T18:30:42;4.07;;;2.50;;
5006;SDS011;2522;50.972;11.046;2022-07-29T18:33:10;5.50;;;2.90;;
5006;SDS011;2522;50.972;11.046;2022-07-29T18:35:41;4.43;;;3.13;;
5006;SDS011;2522;50.972;11.046;2022-07-29T18:38:08;3.77;;;2.00;;
5006;SDS011;2522;50.972;11.046;2022-07-29T18:40:35;4.93;;;2.10;;
5006;SDS011;2522;50.972;11.046;2022-07-29T18:43:03;7.30;;;2.40;;
5006;SDS011;2522;50.972;11.046;2022-07-29T18:45:30;3.40;;;2.17;;
5006;SDS011;2522;50.972;11.046;2022-07-29T18:47:57;4.43;;;2.17;;
5006;SDS011;2522;50.972;11.046;2022-07-29T18:50:26;11.93;;;2.50;;
5006;SDS011;2522;50.972;11.046;2022-07-29T18:52:53;5.53;;;1.73;;
5006;SDS011;2522;50.972;11.046;2022-07-29T18:55:22;7.43;;;2.10;;
5006;SDS011;2522;50.972;11.046;2022-07-29T18:57:49;7.83;;;3.10;;
5006;SDS011;2522;50.972;11.046;2022-07-29T19:00:16;4.43;;;2.73;;
5006;SDS011;2522;50.972;11.046;2022-07-29T19:02:43;5.70;;;2.67;;
5006;SDS011;2522;50.972;11.046;2022-07-29T19:05:10;5.93;;;3.43;;
5006;SDS011;2522;50.972;11.046;2022-07-29T19:07:38;8.30;;;3.23;;